Time;durP1;ratioP1;P1;durP2;ratioP2;P2;SDS_P1;SDS_P2;PMS_P1;PMS_P2;Temp;Humidity;BMP_temperature;BMP_pressure;BME280_temperature;BME280_humidity;BME280_pressure;Samples;Min_cycle;Max_cycle;Signal;HPM_P1;HPM_P2
2022/12/14 00:04:15;;;;;;;12.70;5.60;;;;;;;;;;10453476;28;20210;-68
2022/12/14 00:09:16;;;;;;;16.00;5.07;;;;;;;;;;10462943;28;20214;-69
2022/12/14 00:14:17;;;;;;;19.87;8.27;;;;;;;;;;10463892;28;20215;-69
2022/12/14 00:19:18;;;;;;;13.07;6.73;;;;;;;;;;10480213;28;20253;-74
2022/12/14 00:24:19;;;;;;;12.43;6.50;;;;;;;;;;10469660;28;20236;-74
2022/12/14 00:29:20;;;;;;;15.73;5.73;;;;;;;;;;10475424;28;20219;-69
2022/12/14 00:34:21;;;;;;;14.50;6.13;;;;;;;;;;10462682;28;20237;-68
2022/12/14 00:39:23;;;;;;;7.67;5.43;;;;;;;;;;10461853;28;20206;-69
2022/12/14 00:44:24;;;;;;;13.40;6.00;;;;;;;;;;10459021;28;20214;-68
2022/12/14 00:49:25;;;;;;;7.80;5.60;;;;;;;;;;10474499;28;20711;-68
2022/12/14 00:54:26;;;;;;;13.07;5.60;;;;;;;;;;10461495;28;20207;-68
2022/12/14 00:59:27;;;;;;;9.20;6.53;;;;;;;;;;10461105;28;20218;-68
2022/12/14 01:04:30;;;;;;;10.97;5.73;;;;;;;;;;10466871;28;20636;-69
2022/12/14 01:09:32;;;;;;;6.40;4.23;;;;;;;;;;10460368;28;20229;-70
2022/12/14 01:14:33;;;;;;;11.37;6.60;;;;;;;;;;10462764;28;20245;-70
2022/12/14 01:19:34;;;;;;;20.00;6.70;;;;;;;;;;10460272;28;20769;-70
2022/12/14 01:24:35;;;;;;;9.77;5.50;;;;;;;;;;10464251;28;20236;-70
2022/12/14 01:29:36;;;;;;;9.53;5.73;;;;;;;;;;10463806;28;21282;-69
2022/12/14 01:34:37;;;;;;;18.47;5.27;;;;;;;;;;10460326;28;20217;-69
2022/12/14 01:39:38;;;;;;;18.17;5.90;;;;;;;;;;10459955;28;20698;-70
2022/12/14 01:44:39;;;;;;;9.87;5.77;;;;;;;;;;10461569;28;20221;-69
2022/12/14 01:49:42;;;;;;;19.80;6.20;;;;;;;;;;10462149;28;20254;-70
2022/12/14 01:54:48;;;;;;;13.10;7.03;;;;;;;;;;10459925;28;21082;-71
2022/12/14 01:59:49;;;;;;;13.67;4.87;;;;;;;;;;10460091;28;20225;-71
2022/12/14 02:04:54;;;;;;;9.83;5.87;;;;;;;;;;10459794;28;20213;-70
2022/12/14 02:09:57;;;;;;;12.53;5.50;;;;;;;;;;10458287;28;20362;-71
2022/12/14 02:14:58;;;;;;;15.03;6.33;;;;;;;;;;10456982;28;20213;-70
2022/12/14 02:19:59;;;;;;;7.63;5.63;;;;;;;;;;10459593;28;20621;-68
2022/12/14 02:25:15;;;;;;;6.40;4.33;;;;;;;;;;10441474;28;20234;-69
2022/12/14 02:30:24;;;;;;;10.03;5.10;;;;;;;;;;10420239;28;20570;-68
2022/12/14 02:35:37;;;;;;;8.30;4.93;;;;;;;;;;10416704;28;20222;-68
2022/12/14 02:40:48;;;;;;;12.10;5.13;;;;;;;;;;10418441;28;20211;-70
2022/12/14 02:45:56;;;;;;;9.03;5.60;;;;;;;;;;10426604;28;20301;-68
2022/12/14 02:51:23;;;;;;;15.97;6.33;;;;;;;;;;10432787;28;20214;-67
2022/12/14 02:56:31;;;;;;;4.17;3.43;;;;;;;;;;10417561;28;20694;-69
2022/12/14 03:01:34;;;;;;;13.83;5.90;;;;;;;;;;10414123;28;20267;-68
2022/12/14 03:06:35;;;;;;;9.53;5.33;;;;;;;;;;10414397;28;20221;-69
2022/12/14 03:11:40;;;;;;;9.10;4.17;;;;;;;;;;10416455;28;20211;-69
2022/12/14 03:16:44;;;;;;;14.60;7.10;;;;;;;;;;10416247;28;20212;-68
2022/12/14 03:21:47;;;;;;;12.30;6.37;;;;;;;;;;10416724;28;20213;-67
2022/12/14 03:26:48;;;;;;;11.53;5.03;;;;;;;;;;10446517;28;20230;-69
2022/12/14 03:31:53;;;;;;;7.63;5.23;;;;;;;;;;10462525;28;20202;-69
2022/12/14 03:37:11;;;;;;;8.00;4.97;;;;;;;;;;10461652;28;20296;-68
2022/12/14 03:42:15;;;;;;;13.47;5.53;;;;;;;;;;10467090;28;20246;-68
2022/12/14 03:47:19;;;;;;;11.90;5.13;;;;;;;;;;10462229;28;20590;-68
2022/12/14 03:52:30;;;;;;;11.67;5.77;;;;;;;;;;10460924;28;20210;-69
2022/12/14 03:57:47;;;;;;;16.57;6.70;;;;;;;;;;10461655;28;21518;-70
2022/12/14 04:02:52;;;;;;;11.23;4.97;;;;;;;;;;10466059;28;20702;-69
2022/12/14 04:07:59;;;;;;;17.43;6.17;;;;;;;;;;10468089;28;20218;-69
2022/12/14 04:34:41;;;;;;;15.67;5.47;;;;;;;;;;10462877;28;20218;-69
2022/12/14 04:39:52;;;;;;;14.27;7.13;;;;;;;;;;10459024;28;20268;-70
2022/12/14 04:44:55;;;;;;;10.70;5.67;;;;;;;;;;10459245;28;20210;-70
2022/12/14 04:50:02;;;;;;;11.90;4.97;;;;;;;;;;10461144;28;20241;-69
2022/12/14 04:55:06;;;;;;;10.13;6.00;;;;;;;;;;10449636;28;20293;-69
2022/12/14 05:00:08;;;;;;;9.80;6.53;;;;;;;;;;10464761;28;20183;-70
2022/12/14 05:05:28;;;;;;;11.77;6.20;;;;;;;;;;10454739;28;20269;-69
2022/12/14 05:10:32;;;;;;;14.00;5.70;;;;;;;;;;10439936;28;20249;-70
2022/12/14 05:15:40;;;;;;;11.43;6.20;;;;;;;;;;10458924;28;20218;-69
2022/12/14 05:20:41;;;;;;;3.50;3.27;;;;;;;;;;10470547;28;20710;-69
2022/12/14 05:25:42;;;;;;;13.43;5.90;;;;;;;;;;10463994;28;20233;-68
2022/12/14 05:30:43;;;;;;;8.50;4.53;;;;;;;;;;10455366;28;20716;-67
2022/12/14 05:35:45;;;;;;;10.00;6.10;;;;;;;;;;10464968;28;20718;-70
2022/12/14 05:40:46;;;;;;;16.80;5.47;;;;;;;;;;10463735;28;20305;-70
2022/12/14 05:45:47;;;;;;;11.57;4.70;;;;;;;;;;10458970;28;20217;-71
2022/12/14 05:50:48;;;;;;;8.20;4.97;;;;;;;;;;10453777;28;20219;-70
2022/12/14 05:55:50;;;;;;;9.77;3.60;;;;;;;;;;10454301;28;20225;-71
2022/12/14 06:00:51;;;;;;;5.73;4.67;;;;;;;;;;10456166;28;20226;-70
2022/12/14 06:05:52;;;;;;;6.67;4.63;;;;;;;;;;10458380;28;20207;-69
2022/12/14 06:11:00;;;;;;;11.23;6.17;;;;;;;;;;10454367;28;20210;-70
2022/12/14 06:16:12;;;;;;;9.10;4.27;;;;;;;;;;10470922;28;20308;-69
2022/12/14 06:21:14;;;;;;;8.47;4.60;;;;;;;;;;10452889;28;20215;-70
2022/12/14 06:26:15;;;;;;;11.70;5.40;;;;;;;;;;10453268;28;20227;-70
2022/12/14 06:31:21;;;;;;;9.17;5.60;;;;;;;;;;10446268;28;20202;-70
2022/12/14 06:36:23;;;;;;;8.90;5.47;;;;;;;;;;10454106;28;20221;-70
2022/12/14 06:41:24;;;;;;;15.43;7.10;;;;;;;;;;10448472;28;20218;-70
2022/12/14 06:46:26;;;;;;;15.63;5.17;;;;;;;;;;10458792;28;20213;-70
2022/12/14 06:51:27;;;;;;;12.03;3.87;;;;;;;;;;10456299;28;20305;-70
2022/12/14 06:56:28;;;;;;;10.57;4.07;;;;;;;;;;10461030;28;20240;-69
2022/12/14 07:01:29;;;;;;;7.53;4.97;;;;;;;;;;10464286;28;20202;-70
2022/12/14 07:06:32;;;;;;;6.47;4.77;;;;;;;;;;10463538;28;20843;-70
2022/12/14 07:11:33;;;;;;;14.13;5.47;;;;;;;;;;10477168;28;20209;-70
2022/12/14 07:16:35;;;;;;;11.63;6.07;;;;;;;;;;10467259;28;20220;-70
2022/12/14 07:21:36;;;;;;;10.23;6.17;;;;;;;;;;10455765;28;20224;-70
2022/12/14 07:26:38;;;;;;;13.50;4.73;;;;;;;;;;10456671;28;20214;-70
2022/12/14 07:31:39;;;;;;;8.53;4.83;;;;;;;;;;10461395;28;20217;-71
2022/12/14 07:36:41;;;;;;;23.33;6.33;;;;;;;;;;10458485;28;20222;-71
2022/12/14 07:41:43;;;;;;;11.97;4.60;;;;;;;;;;10457043;28;20226;-71
2022/12/14 07:46:45;;;;;;;12.27;4.93;;;;;;;;;;10455376;28;20249;-71
2022/12/14 07:51:46;;;;;;;10.33;6.10;;;;;;;;;;10452679;28;20568;-70
2022/12/14 07:56:47;;;;;;;8.90;4.27;;;;;;;;;;10457310;28;20229;-69
2022/12/14 08:01:48;;;;;;;9.60;5.47;;;;;;;;;;10452932;28;20705;-70
2022/12/14 08:06:49;;;;;;;5.90;5.30;;;;;;;;;;10450647;28;20241;-71
2022/12/14 08:11:50;;;;;;;11.97;6.57;;;;;;;;;;10456238;28;20226;-71
2022/12/14 08:16:52;;;;;;;7.00;4.67;;;;;;;;;;10467395;28;20738;-72
2022/12/14 08:21:53;;;;;;;14.83;5.23;;;;;;;;;;10462445;28;20248;-71
2022/12/14 08:26:54;;;;;;;9.37;4.40;;;;;;;;;;10476912;28;20222;-72
2022/12/14 08:31:56;;;;;;;11.33;5.60;;;;;;;;;;10443114;28;20585;-72
2022/12/14 08:36:57;;;;;;;2.53;2.40;;;;;;;;;;10473485;28;20211;-71
2022/12/14 08:41:58;;;;;;;5.53;4.10;;;;;;;;;;10453702;28;20211;-74
2022/12/14 08:46:59;;;;;;;9.47;5.07;;;;;;;;;;10471858;28;20257;-71
2022/12/14 08:52:00;;;;;;;5.60;4.23;;;;;;;;;;10474001;28;20220;-71
2022/12/14 08:57:02;;;;;;;7.27;3.83;;;;;;;;;;10471781;28;20239;-71
2022/12/14 09:02:04;;;;;;;13.63;5.40;;;;;;;;;;10469833;28;20210;-73
2022/12/14 09:07:05;;;;;;;10.60;5.97;;;;;;;;;;10469539;28;20305;-73
2022/12/14 09:12:06;;;;;;;10.90;5.70;;;;;;;;;;10449430;28;20718;-72
2022/12/14 09:17:07;;;;;;;10.73;5.93;;;;;;;;;;10465024;28;20596;-71
2022/12/14 09:22:08;;;;;;;15.73;5.27;;;;;;;;;;10471348;28;20222;-72
2022/12/14 09:27:09;;;;;;;10.33;4.40;;;;;;;;;;10469892;28;20222;-72
2022/12/14 09:32:10;;;;;;;16.53;4.97;;;;;;;;;;10468500;28;20217;-71
2022/12/14 09:37:13;;;;;;;10.93;6.07;;;;;;;;;;10455289;28;20455;-72
2022/12/14 09:42:29;;;;;;;16.67;7.20;;;;;;;;;;10469790;28;20299;-72
2022/12/14 09:47:43;;;;;;;10.47;5.97;;;;;;;;;;10465563;28;20248;-73
2022/12/14 09:52:46;;;;;;;8.17;4.67;;;;;;;;;;10460584;28;22294;-72
2022/12/14 09:57:49;;;;;;;10.00;6.10;;;;;;;;;;10460092;28;20214;-72
2022/12/14 10:03:09;;;;;;;13.70;6.63;;;;;;;;;;10454430;28;20248;-72
2022/12/14 10:08:10;;;;;;;13.27;6.60;;;;;;;;;;10465738;28;20215;-72
2022/12/14 10:13:18;;;;;;;15.47;7.90;;;;;;;;;;10453085;28;20246;-72
2022/12/14 10:18:32;;;;;;;11.90;7.03;;;;;;;;;;10455298;28;20214;-71
2022/12/14 10:23:34;;;;;;;10.67;5.67;;;;;;;;;;10455701;28;20234;-74
2022/12/14 10:28:39;;;;;;;9.67;5.73;;;;;;;;;;10456016;28;20206;-73
2022/12/14 10:33:43;;;;;;;11.27;6.50;;;;;;;;;;10470728;28;20214;-75
2022/12/14 10:38:47;;;;;;;12.43;7.50;;;;;;;;;;10465045;28;20210;-73
2022/12/14 10:43:58;;;;;;;17.37;6.87;;;;;;;;;;10460548;28;20720;-74
2022/12/14 10:49:06;;;;;;;19.23;8.23;;;;;;;;;;10465608;28;20218;-76
2022/12/14 10:54:16;;;;;;;18.87;7.83;;;;;;;;;;10460752;28;20209;-73
2022/12/14 10:59:17;;;;;;;14.70;7.93;;;;;;;;;;10463311;28;20306;-74
2022/12/14 11:04:29;;;;;;;13.37;7.73;;;;;;;;;;10470059;28;20207;-75
2022/12/14 11:09:31;;;;;;;18.80;9.53;;;;;;;;;;10476106;28;20229;-77
2022/12/14 11:14:32;;;;;;;19.23;8.63;;;;;;;;;;10462096;28;20727;-77
2022/12/14 11:19:33;;;;;;;15.33;8.30;;;;;;;;;;10459185;28;20257;-77
2022/12/14 11:24:42;;;;;;;16.10;8.57;;;;;;;;;;10468756;28;20317;-75
2022/12/14 11:29:46;;;;;;;18.43;8.10;;;;;;;;;;10458211;28;20222;-71
2022/12/14 11:34:52;;;;;;;21.60;9.30;;;;;;;;;;10460218;28;20218;-77
2022/12/14 11:39:55;;;;;;;23.53;10.73;;;;;;;;;;10459473;28;20209;-75
2022/12/14 11:45:16;;;;;;;27.60;10.77;;;;;;;;;;10449549;28;20213;-73
2022/12/14 11:50:26;;;;;;;21.37;10.37;;;;;;;;;;10451113;28;20252;-73
2022/12/14 11:55:28;;;;;;;23.80;10.33;;;;;;;;;;10454797;28;20236;-75
2022/12/14 12:00:41;;;;;;;22.73;10.63;;;;;;;;;;10465154;28;20241;-75
2022/12/14 12:05:43;;;;;;;25.53;10.33;;;;;;;;;;10469362;28;20210;-73
2022/12/14 12:10:45;;;;;;;27.77;10.87;;;;;;;;;;10448937;28;20222;-73
2022/12/14 12:15:51;;;;;;;19.10;9.10;;;;;;;;;;10471075;28;20980;-73
2022/12/14 12:20:56;;;;;;;24.80;10.60;;;;;;;;;;10471750;28;20211;-74
2022/12/14 12:25:58;;;;;;;22.23;9.87;;;;;;;;;;10452557;28;20693;-71
2022/12/14 12:31:02;;;;;;;19.17;9.77;;;;;;;;;;10472159;28;20229;-72
2022/12/14 12:36:04;;;;;;;24.73;11.63;;;;;;;;;;10465352;28;20205;-70
2022/12/14 12:41:12;;;;;;;24.20;11.23;;;;;;;;;;10462843;28;20218;-70
2022/12/14 12:46:19;;;;;;;19.83;9.50;;;;;;;;;;10468323;28;20566;-70
2022/12/14 12:51:26;;;;;;;24.07;10.40;;;;;;;;;;10476884;28;20249;-69
2022/12/14 12:56:47;;;;;;;20.20;9.47;;;;;;;;;;10462860;28;20219;-69
2022/12/14 13:01:52;;;;;;;17.40;9.30;;;;;;;;;;10472308;28;20214;-70
2022/12/14 13:06:56;;;;;;;19.23;9.90;;;;;;;;;;10481197;28;20240;-71
2022/12/14 13:11:57;;;;;;;23.47;10.30;;;;;;;;;;10464461;28;20248;-69
2022/12/14 13:17:00;;;;;;;29.63;13.87;;;;;;;;;;10459504;28;20213;-71
2022/12/14 13:22:01;;;;;;;20.53;10.73;;;;;;;;;;10459128;28;20214;-71
2022/12/14 13:27:13;;;;;;;22.93;9.43;;;;;;;;;;10424381;28;20219;-70
2022/12/14 13:32:30;;;;;;;16.30;9.83;;;;;;;;;;10425451;28;20302;-71
2022/12/14 13:37:42;;;;;;;17.73;10.40;;;;;;;;;;10424907;28;20229;-71
2022/12/14 13:42:53;;;;;;;23.60;11.10;;;;;;;;;;10426041;28;20632;-71
2022/12/14 13:47:55;;;;;;;26.13;10.93;;;;;;;;;;10429007;28;20242;-71
2022/12/14 13:53:00;;;;;;;17.87;8.93;;;;;;;;;;10438608;28;20217;-71
2022/12/14 13:58:07;;;;;;;19.80;9.17;;;;;;;;;;10421137;28;20288;-71
2022/12/14 14:03:28;;;;;;;19.37;8.90;;;;;;;;;;10419020;28;20219;-71
2022/12/14 14:08:33;;;;;;;20.37;9.97;;;;;;;;;;10424830;28;20226;-72
2022/12/14 14:13:34;;;;;;;17.77;8.73;;;;;;;;;;10420495;28;20217;-72
2022/12/14 14:18:36;;;;;;;16.03;8.23;;;;;;;;;;10422840;28;20219;-73
2022/12/14 14:23:51;;;;;;;24.07;8.17;;;;;;;;;;10420964;28;20721;-73
2022/12/14 14:29:05;;;;;;;23.23;9.57;;;;;;;;;;10456708;28;20213;-73
2022/12/14 14:34:13;;;;;;;20.03;9.13;;;;;;;;;;10456662;28;20757;-74
2022/12/14 14:39:36;;;;;;;16.70;9.07;;;;;;;;;;10461848;28;21036;-73
2022/12/14 14:44:49;;;;;;;26.87;10.47;;;;;;;;;;10458256;28;20218;-74
2022/12/14 14:49:52;;;;;;;30.43;11.07;;;;;;;;;;10459872;28;20226;-74
2022/12/14 14:54:54;;;;;;;32.73;10.63;;;;;;;;;;10459130;28;20261;-73
2022/12/14 15:00:00;;;;;;;22.57;9.27;;;;;;;;;;10455471;28;20214;-73
2022/12/14 15:05:03;;;;;;;16.13;8.30;;;;;;;;;;10463417;28;20214;-73
2022/12/14 15:10:22;;;;;;;14.50;7.77;;;;;;;;;;10459761;28;20222;-73
2022/12/14 15:15:35;;;;;;;26.87;11.53;;;;;;;;;;10451364;28;20210;-73
2022/12/14 15:20:36;;;;;;;16.93;8.30;;;;;;;;;;10452635;28;20203;-74
2022/12/14 15:25:37;;;;;;;18.80;9.93;;;;;;;;;;10453705;28;20224;-72
2022/12/14 15:30:46;;;;;;;16.70;8.33;;;;;;;;;;10453284;28;20226;-71
2022/12/14 15:35:47;;;;;;;17.80;8.80;;;;;;;;;;10458133;28;20210;-70
2022/12/14 15:40:55;;;;;;;17.40;8.23;;;;;;;;;;10468829;28;20368;-72
2022/12/14 15:46:00;;;;;;;17.07;8.23;;;;;;;;;;10463836;28;20253;-71
2022/12/14 15:51:11;;;;;;;14.53;8.17;;;;;;;;;;10471814;28;20264;-72
2022/12/14 15:56:21;;;;;;;20.40;8.03;;;;;;;;;;10471139;28;20309;-72
2022/12/14 16:01:34;;;;;;;13.40;8.47;;;;;;;;;;10466044;28;20250;-71
2022/12/14 16:06:37;;;;;;;18.07;8.47;;;;;;;;;;10470347;28;20217;-79
2022/12/14 16:11:40;;;;;;;16.10;8.30;;;;;;;;;;10465507;28;20215;-71
2022/12/14 16:16:41;;;;;;;17.83;8.23;;;;;;;;;;10468234;28;20218;-71
2022/12/14 16:21:46;;;;;;;20.30;7.63;;;;;;;;;;10471185;28;20218;-70
2022/12/14 16:26:54;;;;;;;29.57;12.03;;;;;;;;;;10470544;28;20239;-73
2022/12/14 16:32:03;;;;;;;20.57;10.00;;;;;;;;;;10464570;28;20215;-79
2022/12/14 16:37:05;;;;;;;17.97;8.43;;;;;;;;;;10468222;28;20207;-71
2022/12/14 16:42:17;;;;;;;14.10;7.17;;;;;;;;;;10469386;28;20720;-73
2022/12/14 16:47:27;;;;;;;22.57;7.50;;;;;;;;;;10468798;28;20219;-71
2022/12/14 16:52:36;;;;;;;19.70;8.03;;;;;;;;;;10469936;28;20245;-73
2022/12/14 16:57:39;;;;;;;15.50;6.87;;;;;;;;;;10469292;28;20248;-75
2022/12/14 17:02:44;;;;;;;17.13;8.07;;;;;;;;;;10470467;28;20264;-78
2022/12/14 17:07:45;;;;;;;18.10;7.17;;;;;;;;;;10464120;28;20222;-73
2022/12/14 17:12:47;;;;;;;11.63;5.67;;;;;;;;;;10467030;28;20990;-77
2022/12/14 17:17:50;;;;;;;14.13;6.83;;;;;;;;;;10457727;28;20254;-71
2022/12/14 17:22:52;;;;;;;7.77;5.60;;;;;;;;;;10467267;28;21167;-71
2022/12/14 17:27:54;;;;;;;21.20;7.20;;;;;;;;;;10461610;28;20218;-71
2022/12/14 17:32:55;;;;;;;27.97;8.67;;;;;;;;;;10464463;28;20760;-71
2022/12/14 17:37:57;;;;;;;13.33;8.20;;;;;;;;;;10463205;28;20233;-72
2022/12/14 17:42:58;;;;;;;17.27;7.40;;;;;;;;;;10467775;28;20218;-73
2022/12/14 17:47:59;;;;;;;15.47;7.10;;;;;;;;;;10463264;28;20899;-71
2022/12/14 17:53:00;;;;;;;10.00;5.87;;;;;;;;;;10466362;28;20214;-71
2022/12/14 17:58:01;;;;;;;20.60;6.80;;;;;;;;;;10460340;28;20225;-70
2022/12/14 18:03:03;;;;;;;11.77;7.00;;;;;;;;;;10464846;28;20306;-76
2022/12/14 18:08:04;;;;;;;16.93;7.50;;;;;;;;;;10462500;28;20577;-79
2022/12/14 18:13:05;;;;;;;9.47;7.27;;;;;;;;;;10469733;28;20229;-76
2022/12/14 18:18:06;;;;;;;12.40;6.47;;;;;;;;;;10470645;28;20211;-72
2022/12/14 18:23:17;;;;;;;10.30;5.93;;;;;;;;;;10470595;28;20221;-75
2022/12/14 18:28:18;;;;;;;14.10;5.70;;;;;;;;;;10427904;28;20309;-77
2022/12/14 18:33:20;;;;;;;20.93;7.50;;;;;;;;;;10426973;28;20678;-83
2022/12/14 18:38:22;;;;;;;15.50;6.37;;;;;;;;;;10432752;28;20220;-75
2022/12/14 18:43:25;;;;;;;9.87;4.50;;;;;;;;;;10418630;28;20231;-70
2022/12/14 18:48:26;;;;;;;11.10;5.10;;;;;;;;;;10405073;28;20921;-71
2022/12/14 18:53:27;;;;;;;10.60;6.63;;;;;;;;;;10385072;28;20225;-72
2022/12/14 18:58:28;;;;;;;16.07;6.73;;;;;;;;;;10384734;28;20281;-71
2022/12/14 19:03:31;;;;;;;10.57;5.93;;;;;;;;;;10384799;28;20290;-71
2022/12/14 19:08:32;;;;;;;11.27;6.27;;;;;;;;;;10378427;28;20326;-73
2022/12/14 19:13:33;;;;;;;10.30;6.27;;;;;;;;;;10386352;28;20222;-75
2022/12/14 19:18:35;;;;;;;19.10;7.47;;;;;;;;;;10380615;28;20265;-74
2022/12/14 19:23:36;;;;;;;22.70;8.67;;;;;;;;;;10393710;28;20274;-75
2022/12/14 19:28:37;;;;;;;14.60;7.83;;;;;;;;;;10468212;28;20348;-68
2022/12/14 19:33:38;;;;;;;17.10;6.93;;;;;;;;;;10453599;28;20224;-68
2022/12/14 19:38:39;;;;;;;18.50;7.50;;;;;;;;;;10460876;28;20229;-75
2022/12/14 19:43:40;;;;;;;14.27;6.43;;;;;;;;;;10462219;28;20972;-70
2022/12/14 19:48:42;;;;;;;11.77;7.07;;;;;;;;;;10436634;28;20230;-68
2022/12/14 19:53:43;;;;;;;11.70;5.80;;;;;;;;;;10422863;28;20233;-74
2022/12/14 19:58:46;;;;;;;11.47;6.13;;;;;;;;;;10422354;28;20242;-70
2022/12/14 20:03:48;;;;;;;16.33;6.13;;;;;;;;;;10462080;28;20816;-73
2022/12/14 20:08:49;;;;;;;16.00;6.77;;;;;;;;;;10453976;28;20250;-72
2022/12/14 20:13:50;;;;;;;14.33;6.67;;;;;;;;;;10446125;28;20233;-74
2022/12/14 20:18:51;;;;;;;18.73;8.37;;;;;;;;;;10451906;28;20218;-75
2022/12/14 20:23:52;;;;;;;13.53;6.07;;;;;;;;;;10457708;28;20234;-70
2022/12/14 20:28:55;;;;;;;12.23;6.63;;;;;;;;;;10433439;28;20382;-69
2022/12/14 20:33:58;;;;;;;11.00;6.03;;;;;;;;;;10431844;28;20691;-72
2022/12/14 20:39:04;;;;;;;12.17;6.97;;;;;;;;;;10385354;28;20219;-71
2022/12/14 20:44:12;;;;;;;27.27;7.83;;;;;;;;;;10398448;28;20223;-72
2022/12/14 20:49:14;;;;;;;16.40;5.63;;;;;;;;;;10417853;28;20215;-72
2022/12/14 20:54:17;;;;;;;20.33;7.13;;;;;;;;;;10415842;28;20210;-70
2022/12/14 20:59:18;;;;;;;21.37;7.83;;;;;;;;;;10383362;28;20218;-73
2022/12/14 21:04:19;;;;;;;13.13;6.37;;;;;;;;;;10366875;28;20555;-69
2022/12/14 21:09:20;;;;;;;12.53;7.47;;;;;;;;;;10445823;28;20214;-70
2022/12/14 21:14:23;;;;;;;14.00;6.00;;;;;;;;;;10458007;28;20249;-71
2022/12/14 21:19:24;;;;;;;14.20;5.97;;;;;;;;;;10464323;28;20206;-71
2022/12/14 21:24:25;;;;;;;20.23;7.57;;;;;;;;;;10460845;28;20268;-71
2022/12/14 21:29:26;;;;;;;6.10;5.13;;;;;;;;;;10467103;28;20221;-71
2022/12/14 21:34:28;;;;;;;14.77;7.73;;;;;;;;;;10461951;28;20750;-71
2022/12/14 21:39:29;;;;;;;18.27;7.87;;;;;;;;;;10464130;28;20203;-71
2022/12/14 21:44:33;;;;;;;11.27;6.73;;;;;;;;;;10466597;28;20536;-71
2022/12/14 21:49:35;;;;;;;23.20;10.27;;;;;;;;;;10449941;28;20218;-71
2022/12/14 21:54:37;;;;;;;19.53;8.50;;;;;;;;;;10461063;28;20512;-71
2022/12/14 21:59:39;;;;;;;19.30;8.80;;;;;;;;;;10465944;28;20210;-71
2022/12/14 22:04:45;;;;;;;15.67;7.50;;;;;;;;;;10457683;28;20245;-70
2022/12/14 22:09:46;;;;;;;22.27;8.37;;;;;;;;;;10462789;28;20249;-71
2022/12/14 22:14:48;;;;;;;36.77;9.23;;;;;;;;;;10455147;28;20218;-70
2022/12/14 22:19:50;;;;;;;23.10;9.30;;;;;;;;;;10460551;28;20219;-70
2022/12/14 22:24:52;;;;;;;28.37;8.90;;;;;;;;;;10463569;28;20241;-71
2022/12/14 22:29:53;;;;;;;21.53;9.07;;;;;;;;;;10461523;28;20218;-70
2022/12/14 22:34:54;;;;;;;25.60;10.17;;;;;;;;;;10462651;28;20652;-71
2022/12/14 22:39:56;;;;;;;31.63;11.20;;;;;;;;;;10464615;28;20222;-71
2022/12/14 22:44:57;;;;;;;31.67;10.20;;;;;;;;;;10467276;28;20355;-71
2022/12/14 22:49:58;;;;;;;45.17;14.57;;;;;;;;;;10463797;28;20225;-71
2022/12/14 22:54:59;;;;;;;25.10;10.20;;;;;;;;;;10457407;28;20235;-71
2022/12/14 23:00:02;;;;;;;28.33;9.50;;;;;;;;;;10460820;28;20305;-72
2022/12/14 23:05:04;;;;;;;13.87;7.33;;;;;;;;;;10463048;28;20628;-70
